createdAt,value
2022-10-18T00:00:32.719Z,89.79
2022-10-18T00:01:31.948Z,90.45
2022-10-18T00:02:33.910Z,90.66
2022-10-18T00:03:33.206Z,90.25
2022-10-18T00:04:31.908Z,90.45
2022-10-18T00:05:33.577Z,90.86
2022-10-18T00:06:32.509Z,91.20
2022-10-18T00:07:32.121Z,91.20
2022-10-18T00:08:33.589Z,91.11
2022-10-18T00:09:32.689Z,91.61
2022-10-18T00:10:31.870Z,91.82
2022-10-18T00:11:33.607Z,91.72
2022-10-18T00:12:32.487Z,92.13
2022-10-18T00:13:31.818Z,91.98
2022-10-18T00:14:33.717Z,92.74
2022-10-18T00:15:32.948Z,93.15
2022-10-18T00:16:31.798Z,92.39
2022-10-18T00:17:34.078Z,91.88
2022-10-18T00:18:33.091Z,91.57
2022-10-18T00:19:31.768Z,92.19
2022-10-18T00:20:32.667Z,91.98
2022-10-18T00:21:32.496Z,92.59
2022-10-18T00:22:32.101Z,92.39
2022-10-18T00:23:33.131Z,91.98
2022-10-18T00:24:32.027Z,92.29
2022-10-18T00:25:31.708Z,91.78
2022-10-18T00:26:33.157Z,91.57
2022-10-18T00:27:32.350Z,91.06
2022-10-18T00:28:31.713Z,91.37
2022-10-18T00:29:33.239Z,92.45
2022-10-18T00:30:32.487Z,93.26
2022-10-18T00:31:31.652Z,93.26
2022-10-18T00:32:33.417Z,91.12
2022-10-18T00:33:33.081Z,90.20
2022-10-18T00:34:31.607Z,90.31
2022-10-18T00:35:33.169Z,91.12
2022-10-18T00:36:32.438Z,90.10
2022-10-18T00:37:31.578Z,90.20
2022-10-18T00:38:33.060Z,89.96
2022-10-18T00:39:32.607Z,90.57
2022-10-18T00:40:31.550Z,88.78
2022-10-18T00:41:33.144Z,89.79
2022-10-18T00:42:33.131Z,92.00
2022-10-18T00:43:31.518Z,88.53
2022-10-18T00:44:31.569Z,87.20
2022-10-18T00:45:32.829Z,86.33
2022-10-18T00:46:32.030Z,87.35
2022-10-18T00:47:32.198Z,86.73
2022-10-18T00:48:31.469Z,85.92
2022-10-18T00:49:33.147Z,86.57
2022-10-18T00:50:32.170Z,87.59
2022-10-18T00:51:31.427Z,86.98
2022-10-18T00:52:33.515Z,86.16
2022-10-18T00:53:32.610Z,86.16
2022-10-18T00:54:31.418Z,88.20
2022-10-18T00:55:33.317Z,90.25
2022-10-18T00:56:32.468Z,90.96
2022-10-18T00:57:32.119Z,90.75
2022-10-18T00:58:31.368Z,87.53
2022-10-18T00:59:33.450Z,88.14
2022-10-18T01:00:32.718Z,87.02
2022-10-18T01:01:31.364Z,87.32
2022-10-18T01:02:33.254Z,87.73
2022-10-18T01:03:32.510Z,87.94
2022-10-18T01:04:31.300Z,88.04
2022-10-18T01:05:32.528Z,87.63
2022-10-18T01:06:31.907Z,88.24
2022-10-18T01:07:31.545Z,89.26
2022-10-18T01:08:32.680Z,89.78
2022-10-18T01:09:32.108Z,88.45
2022-10-18T01:10:31.250Z,86.91
2022-10-18T01:11:32.619Z,87.32
2022-10-18T01:12:31.588Z,87.37
2022-10-18T01:13:31.217Z,88.43
2022-10-18T01:14:31.958Z,88.94
2022-10-18T01:15:31.178Z,87.92
2022-10-18T01:16:32.040Z,89.92
2022-10-18T01:17:31.384Z,87.88
2022-10-18T01:18:32.668Z,87.82
2022-10-18T01:19:31.888Z,87.47
2022-10-18T01:20:31.139Z,87.57
2022-10-18T01:21:32.707Z,87.67
2022-10-18T01:22:32.177Z,87.77
2022-10-18T01:23:31.100Z,87.57
2022-10-18T01:24:32.739Z,88.90
2022-10-18T01:25:31.559Z,90.84
2022-10-18T01:26:31.088Z,91.96
2022-10-18T01:27:33.018Z,87.77
2022-10-18T01:28:32.163Z,87.47
2022-10-18T01:29:31.042Z,87.57
2022-10-18T01:30:31.857Z,87.37
2022-10-18T01:31:31.023Z,87.37
2022-10-18T01:32:32.658Z,88.79
2022-10-18T01:33:32.694Z,89.20
2022-10-18T01:34:31.029Z,87.84
2022-10-18T01:35:31.799Z,87.73
2022-10-18T01:36:30.982Z,87.02
2022-10-18T01:37:32.919Z,87.12
2022-10-18T01:38:31.708Z,86.24
2022-10-18T01:39:31.849Z,86.35
2022-10-18T01:40:30.949Z,86.65
2022-10-18T01:41:32.607Z,86.76
2022-10-18T01:42:30.929Z,86.96
2022-10-18T01:43:31.826Z,86.55
2022-10-18T01:44:30.949Z,86.96
2022-10-18T01:45:32.742Z,86.65
2022-10-18T01:46:32.044Z,86.85
2022-10-18T01:47:31.164Z,87.06
2022-10-18T01:48:32.049Z,87.06
2022-10-18T01:49:31.358Z,87.26
2022-10-18T01:50:30.878Z,87.57
2022-10-18T01:51:31.561Z,87.26
2022-10-18T01:52:31.952Z,87.92
2022-10-18T01:53:31.407Z,88.74
2022-10-18T01:54:30.780Z,89.39
2022-10-18T01:55:32.569Z,89.80
2022-10-18T01:56:31.809Z,90.21
2022-10-18T01:57:30.757Z,90.52
2022-10-18T01:58:31.578Z,90.52
2022-10-18T01:59:31.459Z,90.11
2022-10-18T02:00:31.639Z,90.21
2022-10-18T02:01:30.779Z,90.72
2022-10-18T02:02:31.840Z,90.52
2022-10-18T02:03:31.408Z,90.11
2022-10-18T02:04:31.559Z,89.76
2022-10-18T02:05:31.528Z,89.25
2022-10-18T02:06:30.717Z,89.15
2022-10-18T02:07:32.229Z,88.84
2022-10-18T02:08:31.489Z,90.33
2022-10-18T02:09:30.637Z,91.25
2022-10-18T02:10:31.309Z,90.43
2022-10-18T02:11:31.518Z,89.41
2022-10-18T02:12:31.600Z,88.14
2022-10-18T02:13:30.589Z,87.43
2022-10-18T02:14:31.329Z,87.12
2022-10-18T02:15:30.567Z,88.45
2022-10-18T02:16:32.458Z,88.55
2022-10-18T02:17:31.570Z,88.04
2022-10-18T02:18:30.553Z,88.24
2022-10-18T02:19:31.380Z,91.00
2022-10-18T02:20:30.521Z,89.47
2022-10-18T02:21:32.261Z,90.04
2022-10-18T02:22:31.441Z,88.41
2022-10-18T02:23:30.507Z,87.23
2022-10-18T02:24:32.218Z,87.43
2022-10-18T02:25:31.327Z,90.59
2022-10-18T02:26:30.447Z,87.98
2022-10-18T02:27:32.122Z,90.12
2022-10-18T02:28:31.170Z,89.82
2022-10-18T02:29:30.421Z,89.72
2022-10-18T02:30:32.179Z,89.58
2022-10-18T02:31:31.010Z,88.96
2022-10-18T02:32:30.616Z,88.45
2022-10-18T02:33:32.217Z,88.14
2022-10-18T02:34:31.531Z,88.00
2022-10-18T02:35:30.379Z,88.20
2022-10-18T02:36:31.758Z,88.20
2022-10-18T02:37:31.228Z,88.51
2022-10-18T02:38:30.338Z,89.43
2022-10-18T02:39:32.788Z,88.71
2022-10-18T02:40:31.769Z,88.82
2022-10-18T02:41:30.310Z,88.61
2022-10-18T02:42:31.902Z,88.82
2022-10-18T02:43:31.170Z,89.53
2022-10-18T02:44:30.328Z,89.49
2022-10-18T02:45:31.588Z,89.08
2022-10-18T02:46:30.651Z,88.98
2022-10-18T02:47:30.509Z,89.39
2022-10-18T02:48:31.620Z,89.63
2022-10-18T02:49:31.007Z,89.39
2022-10-18T02:50:30.269Z,89.08
2022-10-18T02:51:31.611Z,88.88
2022-10-18T02:52:31.067Z,88.78
2022-10-18T02:53:30.188Z,88.37
2022-10-18T02:54:31.689Z,88.57
2022-10-18T02:55:30.777Z,88.47
2022-10-18T02:56:30.159Z,88.06
2022-10-18T02:57:31.308Z,88.37
2022-10-18T02:58:30.128Z,88.47
2022-10-18T02:59:31.588Z,88.67
2022-10-18T03:00:30.607Z,89.08
2022-10-18T03:01:30.209Z,88.78
2022-10-18T03:02:30.938Z,88.93
2022-10-18T03:03:30.089Z,88.93
2022-10-18T03:04:31.594Z,89.04
2022-10-18T03:05:31.538Z,89.04
2022-10-18T03:06:30.128Z,88.32
2022-10-18T03:07:32.461Z,87.61
2022-10-18T03:08:31.999Z,87.41
2022-10-18T03:09:30.027Z,88.02
2022-10-18T03:10:29.998Z,88.02
2022-10-18T03:11:31.700Z,87.92
2022-10-18T03:12:31.079Z,88.22
2022-10-18T03:14:30.698Z,88.73
2022-10-18T03:15:30.809Z,88.73
2022-10-18T03:16:30.027Z,89.45
2022-10-18T03:17:31.931Z,89.45
2022-10-18T03:18:31.168Z,89.65
2022-10-18T03:19:29.908Z,89.86
2022-10-18T03:20:32.219Z,90.16
2022-10-18T03:21:31.469Z,90.57
2022-10-18T03:22:29.958Z,90.77
2022-10-18T03:23:31.657Z,90.98
2022-10-18T03:24:31.129Z,91.49
2022-10-18T03:25:29.849Z,91.63
2022-10-18T03:26:29.848Z,92.14
2022-10-18T03:27:32.146Z,92.14
2022-10-18T03:28:31.406Z,92.24
2022-10-18T03:29:29.837Z,92.04
2022-10-18T03:30:30.619Z,92.14
2022-10-18T03:32:30.950Z,93.02
2022-10-18T03:33:29.780Z,93.63
2022-10-18T03:34:31.269Z,92.81
2022-10-18T03:35:31.008Z,94.14
2022-10-18T03:36:30.589Z,93.12
2022-10-18T03:37:30.528Z,93.93
2022-10-18T03:38:29.730Z,93.99
2022-10-18T03:39:31.128Z,93.18
2022-10-18T03:41:29.679Z,92.67
2022-10-18T03:42:31.485Z,92.97
2022-10-18T03:43:31.087Z,92.77
2022-10-18T03:44:30.539Z,93.28
2022-10-18T03:45:31.356Z,93.69
2022-10-18T03:46:29.650Z,93.69
2022-10-18T03:47:31.147Z,93.28
2022-10-18T03:48:30.488Z,93.48
2022-10-18T03:49:29.654Z,94.40
2022-10-18T03:50:31.220Z,93.69
2022-10-18T03:51:30.168Z,93.48
2022-10-18T03:52:29.968Z,94.65
2022-10-18T03:53:31.032Z,94.85
2022-10-18T03:54:30.458Z,95.36
2022-10-18T03:55:30.180Z,95.12
2022-10-18T03:56:29.529Z,95.26
2022-10-18T03:57:31.135Z,94.71
2022-10-18T03:58:31.768Z,95.12
2022-10-18T03:59:29.560Z,95.32
2022-10-18T04:00:29.500Z,94.60
2022-10-18T04:01:29.551Z,94.05
2022-10-18T04:02:29.775Z,93.74
2022-10-18T04:03:30.389Z,93.38
2022-10-18T04:04:29.770Z,93.18
2022-10-18T04:05:30.320Z,93.18
2022-10-18T04:06:29.428Z,93.28
2022-10-18T04:07:31.039Z,93.24
2022-10-18T04:08:30.527Z,92.93
2022-10-18T04:09:29.557Z,92.11
2022-10-18T04:10:31.129Z,92.42
2022-10-18T04:11:30.179Z,92.32
2022-10-18T04:12:30.373Z,92.99
2022-10-18T04:13:30.360Z,91.66
2022-10-18T04:14:30.049Z,90.38
2022-10-18T04:15:30.270Z,90.99
2022-10-18T04:16:30.473Z,92.22
2022-10-18T04:17:29.507Z,93.24
2022-10-18T04:18:31.258Z,91.24
2022-10-18T04:19:30.129Z,91.65
2022-10-18T04:20:30.288Z,92.71
2022-10-18T04:21:29.329Z,94.60
2022-10-18T04:22:30.040Z,93.12
2022-10-18T04:23:29.251Z,93.12
2022-10-18T04:24:30.587Z,93.63
2022-10-18T04:25:31.135Z,93.32
2022-10-18T04:26:31.170Z,92.50
2022-10-18T04:27:31.109Z,92.46
2022-10-18T04:28:30.056Z,93.07
2022-10-18T04:29:29.888Z,92.67
2022-10-18T04:30:29.978Z,91.65
2022-10-18T04:31:29.241Z,91.44
2022-10-18T04:32:30.548Z,92.46
2022-10-18T04:33:29.898Z,91.59
2022-10-18T04:34:29.997Z,92.46
2022-10-18T04:35:29.151Z,92.16
2022-10-18T04:36:30.608Z,91.96
2022-10-18T04:37:30.103Z,91.20
2022-10-18T04:38:29.969Z,90.99
2022-10-18T04:39:29.867Z,91.30
2022-10-18T04:40:29.079Z,90.38
2022-10-18T04:41:29.937Z,91.20
2022-10-18T04:42:29.102Z,90.59
2022-10-18T04:43:31.041Z,92.16
2022-10-18T04:44:29.878Z,93.18
2022-10-18T04:45:29.018Z,93.43
2022-10-18T04:46:30.689Z,93.63
2022-10-18T04:47:30.576Z,94.65
2022-10-18T04:48:29.025Z,95.36
2022-10-18T04:49:28.983Z,94.65
2022-10-18T04:50:30.649Z,94.45
2022-10-18T04:51:30.050Z,94.65
2022-10-18T04:52:29.009Z,95.41
2022-10-18T04:53:30.668Z,95.72
2022-10-18T04:54:29.838Z,95.72
2022-10-18T04:55:28.948Z,95.45
2022-10-18T04:56:30.558Z,95.65
2022-10-18T04:57:30.274Z,96.68
2022-10-18T04:58:28.918Z,96.92
2022-10-18T04:59:30.298Z,97.44
2022-10-18T05:00:29.440Z,97.13
2022-10-18T05:01:28.907Z,96.72
2022-10-18T05:02:30.564Z,97.13
2022-10-18T05:03:30.348Z,97.54
2022-10-18T05:04:28.829Z,98.36
2022-10-18T05:05:49.940Z,97.54
2022-10-18T05:06:28.828Z,98.15
2022-10-18T05:07:30.908Z,97.13
2022-10-18T05:08:30.120Z,96.92
2022-10-18T05:09:28.840Z,96.97
2022-10-18T05:10:29.739Z,97.08
2022-10-18T05:11:28.770Z,97.79
2022-10-18T05:12:30.585Z,97.69
2022-10-18T05:13:30.089Z,96.97
2022-10-18T05:14:28.738Z,98.61
2022-10-18T05:15:30.069Z,97.89
2022-10-18T05:16:30.589Z,96.97
2022-10-18T05:17:28.687Z,97.08
2022-10-18T05:18:30.141Z,97.49
2022-10-18T05:19:29.319Z,98.20
2022-10-18T05:20:28.708Z,99.02
2022-10-18T05:21:30.208Z,98.91
2022-10-18T05:22:30.209Z,98.61
2022-10-18T05:23:28.650Z,98.81
2022-10-18T05:24:30.069Z,99.52
2022-10-18T05:25:29.077Z,99.38
2022-10-18T05:26:28.600Z,97.99
2022-10-18T05:27:30.169Z,98.10
2022-10-18T05:28:44.632Z,98.40
2022-10-18T05:29:30.361Z,98.91
2022-10-18T05:30:29.410Z,98.91
2022-10-18T05:31:28.618Z,98.61
2022-10-18T05:32:30.441Z,98.81
2022-10-18T05:33:30.077Z,98.91
2022-10-18T05:34:28.550Z,98.61
2022-10-18T05:35:28.513Z,98.50
2022-10-18T05:36:30.318Z,98.61
2022-10-18T05:37:29.358Z,98.66
2022-10-18T05:38:29.779Z,98.05
2022-10-18T05:39:28.488Z,98.05
2022-10-18T05:40:29.749Z,97.64
2022-10-18T05:41:28.741Z,97.24
2022-10-18T05:42:29.275Z,97.33
2022-10-18T05:43:28.430Z,97.95
2022-10-18T05:44:30.697Z,98.21
2022-10-18T05:45:29.400Z,97.64
2022-10-18T05:46:28.940Z,97.74
2022-10-18T05:47:29.724Z,97.74
2022-10-18T05:48:29.430Z,98.05
2022-10-18T05:49:28.363Z,98.66
2022-10-18T05:50:29.048Z,97.95
2022-10-18T05:51:28.408Z,97.79
2022-10-18T05:52:29.825Z,98.05
2022-10-18T05:53:36.580Z,98.25
2022-10-18T05:54:30.098Z,97.64
2022-10-18T05:55:29.148Z,97.64
2022-10-18T05:56:28.359Z,98.20
2022-10-18T05:57:29.915Z,98.30
2022-10-18T05:58:29.258Z,98.10
2022-10-18T05:59:28.269Z,97.89
2022-10-18T06:00:29.958Z,97.38
2022-10-18T06:01:29.568Z,97.03
2022-10-18T06:02:29.205Z,97.03
2022-10-18T06:03:28.340Z,96.31
2022-10-18T06:04:29.071Z,96.92
2022-10-18T06:05:28.238Z,96.51
2022-10-18T06:06:29.056Z,96.27
2022-10-18T06:07:28.228Z,96.06
2022-10-18T06:08:29.774Z,96.27
2022-10-18T06:09:28.699Z,96.58
2022-10-18T06:10:28.208Z,96.78
2022-10-18T06:11:29.618Z,96.78
2022-10-18T06:12:29.148Z,96.88
2022-10-18T06:13:31.182Z,96.17
2022-10-18T06:14:28.108Z,96.12
2022-10-18T06:15:29.675Z,96.12
2022-10-18T06:16:32.405Z,95.81
2022-10-18T06:17:31.670Z,96.02
2022-10-18T06:18:28.118Z,96.12
2022-10-18T06:19:28.060Z,95.81
2022-10-18T06:20:29.913Z,96.12
2022-10-18T06:21:28.727Z,95.61
2022-10-18T06:22:28.058Z,95.61
2022-10-18T06:23:29.650Z,94.90
2022-10-18T06:24:28.960Z,94.34
2022-10-18T06:25:28.119Z,94.59
2022-10-18T06:26:29.970Z,95.51
2022-10-18T06:27:28.889Z,95.97
2022-10-18T06:28:28.116Z,95.87
2022-10-18T06:29:28.798Z,96.18
2022-10-18T06:30:27.961Z,96.33
2022-10-18T06:31:29.879Z,96.22
2022-10-18T06:32:28.758Z,96.73
2022-10-18T06:33:27.959Z,96.73
2022-10-18T06:34:29.219Z,96.33
2022-10-18T06:35:28.380Z,96.33
2022-10-18T06:36:27.888Z,96.53
2022-10-18T06:37:29.556Z,96.84
2022-10-18T06:38:29.820Z,97.34
2022-10-18T06:39:27.869Z,97.65
2022-10-18T06:40:27.888Z,98.36
2022-10-18T06:41:29.198Z,98.02
2022-10-18T06:42:28.541Z,97.09
2022-10-18T06:43:27.869Z,97.61
2022-10-18T06:44:29.767Z,96.69
2022-10-18T06:45:28.749Z,97.61
2022-10-18T06:46:27.796Z,95.97
2022-10-18T06:47:29.229Z,95.83
2022-10-18T06:48:28.501Z,95.21
2022-10-18T06:49:27.762Z,95.12
2022-10-18T06:50:29.300Z,95.01
2022-10-18T06:51:28.129Z,94.20
2022-10-18T06:52:27.730Z,94.09
2022-10-18T06:53:28.539Z,95.07
2022-10-18T06:54:27.730Z,94.66
2022-10-18T06:55:29.257Z,94.66
2022-10-18T06:56:28.248Z,93.79
2022-10-18T06:57:27.679Z,93.69
2022-10-18T06:58:29.158Z,93.59
2022-10-18T06:59:31.137Z,94.09
2022-10-18T07:00:27.628Z,94.09
2022-10-18T07:01:29.295Z,92.46
2022-10-18T07:02:29.499Z,92.46
2022-10-18T07:03:27.609Z,92.16
2022-10-18T07:04:29.218Z,93.48
2022-10-18T07:05:28.418Z,92.67
2022-10-18T07:06:27.590Z,92.91
2022-10-18T07:07:29.113Z,92.67
2022-10-18T07:08:27.559Z,93.48
2022-10-18T07:09:29.238Z,93.38
2022-10-18T07:10:28.199Z,92.72
2022-10-18T07:11:27.549Z,92.63
2022-10-18T07:12:28.431Z,91.91
2022-10-18T07:13:32.541Z,91.56
2022-10-18T07:14:29.145Z,90.85
2022-10-18T07:15:27.638Z,91.87
2022-10-18T07:16:29.215Z,90.55
2022-10-18T07:17:28.131Z,89.99
2022-10-18T07:18:27.452Z,89.01
2022-10-18T07:19:29.631Z,88.61
2022-10-18T07:20:28.829Z,89.12
2022-10-18T07:21:27.430Z,90.14
2022-10-18T07:22:30.348Z,89.83
2022-10-18T07:23:28.529Z,89.63
2022-10-18T07:24:28.154Z,90.09
2022-10-18T07:25:29.885Z,89.89
2022-10-18T07:26:28.993Z,89.59
2022-10-18T07:27:27.389Z,90.05
2022-10-18T07:28:29.575Z,90.36
2022-10-18T07:29:28.359Z,89.89
2022-10-18T07:30:27.989Z,90.50
2022-10-18T07:31:29.328Z,89.48
2022-10-18T07:32:29.553Z,89.99
2022-10-18T07:33:29.548Z,90.91
2022-10-18T07:34:28.920Z,89.99
2022-10-18T07:35:27.280Z,90.14
2022-10-18T07:36:27.342Z,90.64
2022-10-18T07:37:30.143Z,90.95
2022-10-18T07:38:27.258Z,91.87
2022-10-18T07:39:27.978Z,91.87
2022-10-18T07:40:27.222Z,91.66
2022-10-18T07:41:29.274Z,91.31
2022-10-18T07:42:28.600Z,89.94
2022-10-18T07:43:27.509Z,90.24
2022-10-18T07:44:28.678Z,90.95
2022-10-18T07:45:28.027Z,91.22
2022-10-18T07:46:27.239Z,90.50
2022-10-18T07:47:30.086Z,90.85
2022-10-18T07:48:27.222Z,91.52
2022-10-18T07:49:27.961Z,91.72
2022-10-18T07:50:27.148Z,90.91
2022-10-18T07:51:28.738Z,91.22
2022-10-18T07:52:27.785Z,90.70
2022-10-18T07:53:27.740Z,90.70
2022-10-18T07:54:29.298Z,90.30
2022-10-18T07:55:28.287Z,91.66
2022-10-18T07:56:27.120Z,91.87
2022-10-18T07:57:28.858Z,91.05
2022-10-18T07:58:27.837Z,90.60
2022-10-18T07:59:27.029Z,91.01
2022-10-18T08:00:28.650Z,90.50
2022-10-18T08:01:27.864Z,90.81
2022-10-18T08:02:27.048Z,90.81
2022-10-18T08:03:28.931Z,89.95
2022-10-18T08:04:27.887Z,89.24
2022-10-18T08:05:27.386Z,89.95
2022-10-18T08:06:28.679Z,88.73
2022-10-18T08:07:27.797Z,88.93
2022-10-18T08:08:26.939Z,88.69
2022-10-18T08:09:28.117Z,87.77
2022-10-18T08:10:27.348Z,87.47
2022-10-18T08:11:27.622Z,86.96
2022-10-18T08:12:26.898Z,88.48
2022-10-18T08:13:27.737Z,88.22
2022-10-18T08:14:26.870Z,88.28
2022-10-18T08:15:27.688Z,88.08
2022-10-18T08:16:26.899Z,88.59
2022-10-18T08:17:28.375Z,87.37
2022-10-18T08:18:27.629Z,86.76
2022-10-18T08:19:27.708Z,87.37
2022-10-18T08:20:30.756Z,87.37
2022-10-18T08:21:26.822Z,87.57
2022-10-18T08:22:26.801Z,87.47
2022-10-18T08:23:28.188Z,88.28
2022-10-18T08:24:26.888Z,88.59
2022-10-18T08:25:26.838Z,89.85
2022-10-18T08:26:28.109Z,89.75
2022-10-18T08:27:27.579Z,90.20
2022-10-18T08:28:27.635Z,91.22
2022-10-18T08:29:29.228Z,91.01
2022-10-18T08:30:27.488Z,91.66
2022-10-18T08:31:26.697Z,91.93
2022-10-18T08:32:28.231Z,91.62
2022-10-18T08:33:27.279Z,91.72
2022-10-18T08:34:26.772Z,91.31
2022-10-18T08:35:27.528Z,91.11
2022-10-18T08:36:28.510Z,91.22
2022-10-18T08:37:28.297Z,90.70
2022-10-18T08:38:26.627Z,90.40
2022-10-18T08:39:28.228Z,90.20
2022-10-18T08:40:27.728Z,90.25
2022-10-18T08:41:26.588Z,91.11
2022-10-18T08:42:27.389Z,91.93
2022-10-18T08:43:27.406Z,91.22
2022-10-18T08:44:26.580Z,90.86
2022-10-18T08:45:41.961Z,90.77
2022-10-18T08:46:27.740Z,89.95
2022-10-18T08:47:27.358Z,90.46
2022-10-18T08:48:26.547Z,90.66
2022-10-18T08:49:27.358Z,90.77
2022-10-18T08:50:27.430Z,89.85
2022-10-18T08:51:26.558Z,90.86
2022-10-18T08:52:28.181Z,90.77
2022-10-18T08:53:27.273Z,88.73
2022-10-18T08:54:26.499Z,89.69
2022-10-18T08:55:28.742Z,91.22
2022-10-18T08:56:27.589Z,91.11
2022-10-18T08:57:27.222Z,91.01
2022-10-18T08:58:27.097Z,91.72
2022-10-18T08:59:27.209Z,90.81
2022-10-18T09:00:26.410Z,90.60
2022-10-18T09:01:27.318Z,91.22
2022-10-18T09:02:26.398Z,90.70
2022-10-18T09:03:26.436Z,92.03
2022-10-18T09:04:27.790Z,91.83
2022-10-18T09:05:26.369Z,91.48
2022-10-18T09:06:27.729Z,91.17
2022-10-18T09:07:26.608Z,90.22
2022-10-18T09:08:26.340Z,90.42
2022-10-18T09:09:27.760Z,89.26
2022-10-18T09:10:26.618Z,87.93
2022-10-18T09:11:26.953Z,88.69
2022-10-18T09:12:26.358Z,88.48
2022-10-18T09:13:27.630Z,88.83
2022-10-18T09:14:26.551Z,90.31
2022-10-18T09:15:27.109Z,89.50
2022-10-18T09:16:27.029Z,88.44
2022-10-18T09:17:26.969Z,88.24
2022-10-18T09:18:26.298Z,87.47
2022-10-18T09:19:26.999Z,87.98
2022-10-18T09:20:26.799Z,89.03
2022-10-18T09:21:27.048Z,89.07
2022-10-18T09:22:26.787Z,89.73
2022-10-18T09:23:26.252Z,89.59
2022-10-18T09:24:27.798Z,90.05
2022-10-18T09:25:26.777Z,89.61
2022-10-18T09:26:26.777Z,88.28
2022-10-18T09:27:26.928Z,88.79
2022-10-18T09:28:27.185Z,89.09
2022-10-18T09:29:26.941Z,89.36
2022-10-18T09:30:26.119Z,87.47
2022-10-18T09:31:27.638Z,88.13
2022-10-18T09:32:26.980Z,87.53
2022-10-18T09:33:26.087Z,85.76
2022-10-18T09:34:26.860Z,85.76
2022-10-18T09:35:26.888Z,85.76
2022-10-18T09:36:26.838Z,86.33
2022-10-18T09:37:26.039Z,85.92
2022-10-18T09:38:27.918Z,85.82
2022-10-18T09:39:26.718Z,85.41
2022-10-18T09:40:26.807Z,85.72
2022-10-18T09:41:25.979Z,84.64
2022-10-18T09:42:27.971Z,86.47
2022-10-18T09:43:26.676Z,86.47
2022-10-18T09:44:26.030Z,86.57
2022-10-18T09:45:26.637Z,86.47
2022-10-18T09:46:26.779Z,85.66
2022-10-18T09:47:26.697Z,85.72
2022-10-18T09:48:25.927Z,85.55
2022-10-18T09:49:27.188Z,85.82
2022-10-18T09:50:26.788Z,86.80
2022-10-18T09:51:26.718Z,85.68
2022-10-18T09:52:25.907Z,87.10
2022-10-18T09:53:26.629Z,86.29
2022-10-18T09:54:26.449Z,84.77
2022-10-18T09:55:26.676Z,85.03
2022-10-18T09:56:26.607Z,85.53
2022-10-18T09:57:26.607Z,85.33
2022-10-18T09:58:26.390Z,84.63
2022-10-18T09:59:26.619Z,84.72
2022-10-18T10:00:25.780Z,85.94
2022-10-18T10:01:26.609Z,85.17
2022-10-18T10:02:25.843Z,86.02
2022-10-18T10:03:27.188Z,86.49
2022-10-18T10:04:25.961Z,86.08
2022-10-18T10:05:25.739Z,85.68
2022-10-18T10:06:27.237Z,86.65
2022-10-18T10:07:27.719Z,84.28
2022-10-18T10:08:26.988Z,84.58
2022-10-18T10:09:25.710Z,82.96
2022-10-18T10:10:27.177Z,83.53
2022-10-18T10:11:26.057Z,82.58
2022-10-18T10:12:25.688Z,81.06
2022-10-18T10:13:26.357Z,81.60
2022-10-18T10:14:25.848Z,81.50
2022-10-18T10:15:31.283Z,82.45
2022-10-18T10:16:27.008Z,83.37
2022-10-18T10:17:25.619Z,83.12
2022-10-18T10:18:27.219Z,81.85
2022-10-18T10:19:26.008Z,83.51
2022-10-18T10:20:25.640Z,84.70
2022-10-18T10:21:27.217Z,86.13
2022-10-18T10:22:26.288Z,86.69
2022-10-18T10:23:25.587Z,85.07
2022-10-18T10:24:30.319Z,85.27
2022-10-18T10:25:26.350Z,85.03
2022-10-18T10:26:26.140Z,84.48
2022-10-18T10:27:27.378Z,84.12
2022-10-18T10:28:26.545Z,83.71
2022-10-18T10:29:43.604Z,84.22
2022-10-18T10:30:26.300Z,85.07
2022-10-18T10:31:26.600Z,84.77
2022-10-18T10:33:25.480Z,86.39
2022-10-18T10:34:26.270Z,85.27
2022-10-18T10:35:41.552Z,86.08
2022-10-18T10:36:26.459Z,85.13
2022-10-18T10:37:25.398Z,84.56
2022-10-18T10:38:26.660Z,84.38
2022-10-18T10:39:25.988Z,82.70
2022-10-18T10:40:28.516Z,83.10
2022-10-18T10:41:26.187Z,83.47
2022-10-18T10:42:26.258Z,82.82
2022-10-18T10:43:37.060Z,82.25
2022-10-18T10:44:26.150Z,83.14
2022-10-18T10:45:26.020Z,84.72
2022-10-18T10:46:26.140Z,83.87
2022-10-18T10:47:25.289Z,82.42
2022-10-18T10:48:29.924Z,82.11
2022-10-18T10:49:41.618Z,81.87
2022-10-18T10:50:26.292Z,80.96
2022-10-18T10:51:25.968Z,81.71
2022-10-18T10:52:27.640Z,81.57
2022-10-18T10:53:26.997Z,81.46
2022-10-18T10:54:25.238Z,81.57
2022-10-18T10:55:34.824Z,82.68
2022-10-18T10:56:26.791Z,82.54
2022-10-18T10:57:25.998Z,82.17
2022-10-18T10:58:26.042Z,83.35
2022-10-18T10:59:26.009Z,81.93
2022-10-18T11:00:25.172Z,80.27
2022-10-18T11:01:25.978Z,80.76
2022-10-18T11:02:25.157Z,82.42
2022-10-18T11:03:30.008Z,83.03
2022-10-18T11:04:25.971Z,83.57
2022-10-18T11:05:25.456Z,84.52
2022-10-18T11:06:26.928Z,83.57
2022-10-18T11:07:26.011Z,84.28
2022-10-18T11:08:25.120Z,83.91
2022-10-18T11:09:25.114Z,84.83
2022-10-18T11:10:25.069Z,84.87
2022-10-18T11:11:26.437Z,86.25
2022-10-18T11:12:25.871Z,84.52
2022-10-18T11:13:25.698Z,85.74
2022-10-18T11:14:27.136Z,84.52
2022-10-18T11:15:26.419Z,85.24
2022-10-18T11:16:25.908Z,85.53
2022-10-18T11:17:25.849Z,84.69
2022-10-18T11:18:25.869Z,83.37
2022-10-18T11:19:27.761Z,83.83
2022-10-18T11:20:25.849Z,83.43
2022-10-18T11:21:24.990Z,83.33
2022-10-18T11:22:26.219Z,82.42
2022-10-18T11:23:25.171Z,83.33
2022-10-18T11:24:24.927Z,82.52
2022-10-18T11:25:25.948Z,83.33
2022-10-18T11:26:25.523Z,82.28
2022-10-18T11:27:25.198Z,81.57
2022-10-18T11:28:25.516Z,81.67
2022-10-18T11:29:24.878Z,82.89
2022-10-18T11:30:25.679Z,82.42
2022-10-18T11:31:26.275Z,82.58
2022-10-18T11:32:25.517Z,81.87
2022-10-18T11:33:38.283Z,81.77
2022-10-18T11:34:26.148Z,83.09
2022-10-18T11:35:25.098Z,82.62
2022-10-18T11:36:25.670Z,83.03
2022-10-18T11:37:30.310Z,82.17
2022-10-18T11:38:26.108Z,82.58
2022-10-18T11:39:24.778Z,81.73
2022-10-18T11:40:25.541Z,82.44
2022-10-18T11:41:25.317Z,81.43
2022-10-18T11:42:24.748Z,82.84
2022-10-18T11:43:30.340Z,82.50
2022-10-18T11:44:26.129Z,81.69
2022-10-18T11:45:24.752Z,80.88
2022-10-18T11:46:26.128Z,81.18
2022-10-18T11:47:26.378Z,80.98
2022-10-18T11:48:26.428Z,81.39
2022-10-18T11:49:25.396Z,80.34
2022-10-18T11:50:24.657Z,80.50
2022-10-18T11:51:34.159Z,79.57
2022-10-18T11:52:26.722Z,81.32
2022-10-18T11:53:24.961Z,81.43
2022-10-18T11:54:25.545Z,80.82
2022-10-18T11:55:28.969Z,81.93
2022-10-18T11:56:25.521Z,81.79
2022-10-18T11:57:25.683Z,81.09
2022-10-18T11:58:25.523Z,79.73
2022-10-18T11:59:25.962Z,80.13
2022-10-18T12:00:24.945Z,80.44
2022-10-18T12:01:28.438Z,80.88
2022-10-18T12:02:25.771Z,81.12
2022-10-18T12:03:25.702Z,82.10
2022-10-18T12:04:26.181Z,81.09
2022-10-18T12:05:25.782Z,80.92
2022-10-18T12:06:24.801Z,82.14
2022-10-18T12:07:30.242Z,82.03
2022-10-18T12:08:26.020Z,82.48
2022-10-18T12:09:25.601Z,81.02
2022-10-18T12:10:37.903Z,81.18
2022-10-18T12:11:26.482Z,79.73
2022-10-18T12:12:25.523Z,80.18
2022-10-18T12:13:26.483Z,79.87
2022-10-18T12:14:25.641Z,80.27
2022-10-18T12:15:24.664Z,81.39
2022-10-18T12:16:49.552Z,81.29
2022-10-18T12:17:43.991Z,81.25
2022-10-18T12:18:24.685Z,80.60
2022-10-18T12:19:27.306Z,80.30
2022-10-18T12:20:26.582Z,80.30
2022-10-18T12:21:25.834Z,78.75
2022-10-18T12:22:25.463Z,78.95
2022-10-18T12:23:24.628Z,79.08
2022-10-18T12:24:24.601Z,79.69
2022-10-18T12:25:26.243Z,80.50
2022-10-18T12:26:25.961Z,80.44
2022-10-18T12:27:25.502Z,79.59
2022-10-18T12:28:24.688Z,79.63
2022-10-18T12:29:25.461Z,81.18
2022-10-18T12:30:24.561Z,81.05
2022-10-18T12:31:25.481Z,80.74
2022-10-18T12:32:25.300Z,80.94
2022-10-18T12:33:29.103Z,81.25
2022-10-18T12:34:26.302Z,81.69
2022-10-18T12:35:25.941Z,81.59
2022-10-18T12:36:25.181Z,82.60
2022-10-18T12:37:24.440Z,82.44
2022-10-18T12:38:25.301Z,82.60
2022-10-18T12:39:33.309Z,80.94
2022-10-18T12:40:25.302Z,81.76
2022-10-18T12:41:25.461Z,80.80
2022-10-18T12:42:26.141Z,79.86
2022-10-18T12:43:25.161Z,79.01
2022-10-18T12:44:25.341Z,79.05
2022-10-18T12:45:27.552Z,78.75
2022-10-18T12:46:25.951Z,78.75
2022-10-18T12:47:25.481Z,79.66
2022-10-18T12:48:25.341Z,81.21
2022-10-18T12:49:24.343Z,82.06
2022-10-18T12:50:24.302Z,82.16
2022-10-18T12:51:25.079Z,82.50
2022-10-18T12:52:24.301Z,82.60
2022-10-18T12:53:26.381Z,81.99
2022-10-18T12:54:24.261Z,82.16
2022-10-18T12:55:25.083Z,81.76
2022-10-18T12:56:25.925Z,82.40